sensor_id;sensor_type;location;lat;lon;timestamp;temperature;humidity
70184;DHT22;57554;51.546;6.776;2023-07-31T00:00:13;16.70;80.20
70184;DHT22;57554;51.546;6.776;2023-07-31T00:02:39;16.70;80.40
70184;DHT22;57554;51.546;6.776;2023-07-31T00:05:05;16.70;80.60
70184;DHT22;57554;51.546;6.776;2023-07-31T00:07:31;16.70;81.00
70184;DHT22;57554;51.546;6.776;2023-07-31T00:09:57;16.70;81.60
70184;DHT22;57554;51.546;6.776;2023-07-31T00:12:23;16.70;81.90
70184;DHT22;57554;51.546;6.776;2023-07-31T00:14:49;16.80;82.30
70184;DHT22;57554;51.546;6.776;2023-07-31T00:17:16;16.80;82.50
70184;DHT22;57554;51.546;6.776;2023-07-31T00:19:42;16.90;82.70
70184;DHT22;57554;51.546;6.776;2023-07-31T00:22:07;16.90;82.80
70184;DHT22;57554;51.546;6.776;2023-07-31T00:24:33;16.90;83.00
70184;DHT22;57554;51.546;6.776;2023-07-31T00:26:58;16.90;83.20
70184;DHT22;57554;51.546;6.776;2023-07-31T00:29:24;16.90;83.30
70184;DHT22;57554;51.546;6.776;2023-07-31T00:31:49;16.90;83.40
70184;DHT22;57554;51.546;6.776;2023-07-31T00:34:15;16.90;83.60
70184;DHT22;57554;51.546;6.776;2023-07-31T00:36:40;16.90;83.70
70184;DHT22;57554;51.546;6.776;2023-07-31T00:39:06;16.90;83.70
70184;DHT22;57554;51.546;6.776;2023-07-31T00:41:31;16.90;83.80
70184;DHT22;57554;51.546;6.776;2023-07-31T00:43:57;16.90;83.80
70184;DHT22;57554;51.546;6.776;2023-07-31T00:46:23;17.00;83.80
70184;DHT22;57554;51.546;6.776;2023-07-31T00:48:49;17.00;83.80
70184;DHT22;57554;51.546;6.776;2023-07-31T00:51:14;17.00;83.70
70184;DHT22;57554;51.546;6.776;2023-07-31T00:53:40;17.00;83.60
70184;DHT22;57554;51.546;6.776;2023-07-31T00:56:06;17.00;83.60
70184;DHT22;57554;51.546;6.776;2023-07-31T00:58:32;17.00;83.60
70184;DHT22;57554;51.546;6.776;2023-07-31T01:00:58;17.10;83.50
70184;DHT22;57554;51.546;6.776;2023-07-31T01:03:23;17.10;83.40
70184;DHT22;57554;51.546;6.776;2023-07-31T01:08:54;17.10;83.20
70184;DHT22;57554;51.546;6.776;2023-07-31T01:11:28;17.10;83.10
70184;DHT22;57554;51.546;6.776;2023-07-31T01:13:55;17.10;83.00
70184;DHT22;57554;51.546;6.776;2023-07-31T01:16:21;17.10;83.00
70184;DHT22;57554;51.546;6.776;2023-07-31T01:18:46;17.10;83.00
70184;DHT22;57554;51.546;6.776;2023-07-31T01:24:22;17.10;82.90
70184;DHT22;57554;51.546;6.776;2023-07-31T01:26:56;17.10;82.80
70184;DHT22;57554;51.546;6.776;2023-07-31T01:29:38;17.10;82.70
70184;DHT22;57554;51.546;6.776;2023-07-31T01:32:09;17.10;82.60
70184;DHT22;57554;51.546;6.776;2023-07-31T01:34:36;17.10;82.50
70184;DHT22;57554;51.546;6.776;2023-07-31T01:37:02;17.10;82.50
70184;DHT22;57554;51.546;6.776;2023-07-31T01:39:28;17.10;82.40
70184;DHT22;57554;51.546;6.776;2023-07-31T01:41:54;17.10;82.30
70184;DHT22;57554;51.546;6.776;2023-07-31T01:44:19;17.10;82.20
70184;DHT22;57554;51.546;6.776;2023-07-31T01:46:45;17.10;82.10
70184;DHT22;57554;51.546;6.776;2023-07-31T01:49:11;17.10;82.10
70184;DHT22;57554;51.546;6.776;2023-07-31T01:51:36;17.10;82.10
70184;DHT22;57554;51.546;6.776;2023-07-31T01:54:02;17.10;82.00
70184;DHT22;57554;51.546;6.776;2023-07-31T01:56:27;17.10;81.90
70184;DHT22;57554;51.546;6.776;2023-07-31T01:58:53;17.10;81.60
70184;DHT22;57554;51.546;6.776;2023-07-31T02:01:19;17.10;81.50
70184;DHT22;57554;51.546;6.776;2023-07-31T02:03:44;17.10;81.40
70184;DHT22;57554;51.546;6.776;2023-07-31T02:06:10;17.10;81.30
70184;DHT22;57554;51.546;6.776;2023-07-31T02:08:35;17.10;81.20
70184;DHT22;57554;51.546;6.776;2023-07-31T02:11:01;17.10;81.10
70184;DHT22;57554;51.546;6.776;2023-07-31T02:13:26;17.10;81.10
70184;DHT22;57554;51.546;6.776;2023-07-31T02:15:52;17.00;81.00
70184;DHT22;57554;51.546;6.776;2023-07-31T02:18:18;17.00;80.90
70184;DHT22;57554;51.546;6.776;2023-07-31T02:20:43;17.10;80.70
70184;DHT22;57554;51.546;6.776;2023-07-31T02:23:11;17.10;80.60
70184;DHT22;57554;51.546;6.776;2023-07-31T02:25:37;17.10;80.60
70184;DHT22;57554;51.546;6.776;2023-07-31T02:28:02;17.10;80.40
70184;DHT22;57554;51.546;6.776;2023-07-31T02:30:28;17.10;80.30
70184;DHT22;57554;51.546;6.776;2023-07-31T02:32:54;17.10;80.30
70184;DHT22;57554;51.546;6.776;2023-07-31T02:35:19;17.10;80.10
70184;DHT22;57554;51.546;6.776;2023-07-31T02:37:45;17.10;80.00
70184;DHT22;57554;51.546;6.776;2023-07-31T02:40:11;17.10;79.90
70184;DHT22;57554;51.546;6.776;2023-07-31T02:42:36;17.10;79.80
70184;DHT22;57554;51.546;6.776;2023-07-31T02:45:02;17.10;79.70
70184;DHT22;57554;51.546;6.776;2023-07-31T02:47:27;17.10;79.60
70184;DHT22;57554;51.546;6.776;2023-07-31T02:49:53;17.10;79.50
70184;DHT22;57554;51.546;6.776;2023-07-31T02:52:18;17.00;79.50
70184;DHT22;57554;51.546;6.776;2023-07-31T02:54:45;17.10;79.50
70184;DHT22;57554;51.546;6.776;2023-07-31T02:57:10;17.10;79.50
70184;DHT22;57554;51.546;6.776;2023-07-31T02:59:36;17.10;79.40
70184;DHT22;57554;51.546;6.776;2023-07-31T03:02:01;17.10;79.20
70184;DHT22;57554;51.546;6.776;2023-07-31T03:04:27;17.10;79.00
70184;DHT22;57554;51.546;6.776;2023-07-31T03:06:52;17.10;78.90
70184;DHT22;57554;51.546;6.776;2023-07-31T03:09:18;17.10;78.90
70184;DHT22;57554;51.546;6.776;2023-07-31T03:11:44;17.10;78.90
70184;DHT22;57554;51.546;6.776;2023-07-31T03:14:09;17.10;78.80
70184;DHT22;57554;51.546;6.776;2023-07-31T03:16:35;17.10;78.70
70184;DHT22;57554;51.546;6.776;2023-07-31T03:19:00;17.10;78.70
70184;DHT22;57554;51.546;6.776;2023-07-31T03:21:26;17.10;78.80
70184;DHT22;57554;51.546;6.776;2023-07-31T03:23:51;17.10;78.80
70184;DHT22;57554;51.546;6.776;2023-07-31T03:26:17;17.10;78.80
70184;DHT22;57554;51.546;6.776;2023-07-31T03:28:42;17.10;78.70
70184;DHT22;57554;51.546;6.776;2023-07-31T03:31:08;17.10;78.70
70184;DHT22;57554;51.546;6.776;2023-07-31T03:33:34;17.10;78.70
70184;DHT22;57554;51.546;6.776;2023-07-31T03:35:59;17.10;78.70
70184;DHT22;57554;51.546;6.776;2023-07-31T03:38:25;17.10;78.70
70184;DHT22;57554;51.546;6.776;2023-07-31T03:40:50;17.10;78.60
70184;DHT22;57554;51.546;6.776;2023-07-31T03:43:16;17.10;78.60
70184;DHT22;57554;51.546;6.776;2023-07-31T03:45:42;17.20;78.60
70184;DHT22;57554;51.546;6.776;2023-07-31T03:48:07;17.20;78.60
70184;DHT22;57554;51.546;6.776;2023-07-31T03:50:33;17.20;78.60
70184;DHT22;57554;51.546;6.776;2023-07-31T03:52:59;17.20;78.60
70184;DHT22;57554;51.546;6.776;2023-07-31T03:55:25;17.20;78.60
70184;DHT22;57554;51.546;6.776;2023-07-31T03:57:50;17.30;78.60
70184;DHT22;57554;51.546;6.776;2023-07-31T04:00:16;17.30;78.60
70184;DHT22;57554;51.546;6.776;2023-07-31T04:02:41;17.30;78.60
70184;DHT22;57554;51.546;6.776;2023-07-31T04:05:07;17.30;78.50
70184;DHT22;57554;51.546;6.776;2023-07-31T04:07:33;17.40;78.50
70184;DHT22;57554;51.546;6.776;2023-07-31T04:10:00;17.40;78.40
70184;DHT22;57554;51.546;6.776;2023-07-31T04:12:25;17.40;78.40
70184;DHT22;57554;51.546;6.776;2023-07-31T04:14:51;17.40;78.30
70184;DHT22;57554;51.546;6.776;2023-07-31T04:17:19;17.40;78.10
70184;DHT22;57554;51.546;6.776;2023-07-31T04:19:45;17.50;78.10
70184;DHT22;57554;51.546;6.776;2023-07-31T04:22:10;17.50;78.10
70184;DHT22;57554;51.546;6.776;2023-07-31T04:24:36;17.50;78.00
70184;DHT22;57554;51.546;6.776;2023-07-31T04:27:02;17.50;77.90
70184;DHT22;57554;51.546;6.776;2023-07-31T04:29:27;17.50;78.00
70184;DHT22;57554;51.546;6.776;2023-07-31T04:31:53;17.50;77.90
70184;DHT22;57554;51.546;6.776;2023-07-31T04:34:18;17.60;77.90
70184;DHT22;57554;51.546;6.776;2023-07-31T04:36:44;17.60;78.00
70184;DHT22;57554;51.546;6.776;2023-07-31T04:39:09;17.60;78.00
70184;DHT22;57554;51.546;6.776;2023-07-31T04:41:35;17.60;78.10
70184;DHT22;57554;51.546;6.776;2023-07-31T04:44:01;17.50;78.30
70184;DHT22;57554;51.546;6.776;2023-07-31T04:46:26;17.50;78.50
70184;DHT22;57554;51.546;6.776;2023-07-31T04:48:52;17.50;78.60
70184;DHT22;57554;51.546;6.776;2023-07-31T04:51:17;17.50;78.70
70184;DHT22;57554;51.546;6.776;2023-07-31T04:53:43;17.50;78.90
70184;DHT22;57554;51.546;6.776;2023-07-31T04:56:09;17.50;79.00
70184;DHT22;57554;51.546;6.776;2023-07-31T04:58:34;17.50;79.00
70184;DHT22;57554;51.546;6.776;2023-07-31T05:01:00;17.60;78.90
70184;DHT22;57554;51.546;6.776;2023-07-31T05:03:25;17.60;78.90
70184;DHT22;57554;51.546;6.776;2023-07-31T05:05:51;17.60;79.00
70184;DHT22;57554;51.546;6.776;2023-07-31T05:08:17;17.60;79.00
70184;DHT22;57554;51.546;6.776;2023-07-31T05:10:45;17.60;78.90
70184;DHT22;57554;51.546;6.776;2023-07-31T05:13:11;17.70;78.90
70184;DHT22;57554;51.546;6.776;2023-07-31T05:15:36;17.70;79.00
70184;DHT22;57554;51.546;6.776;2023-07-31T05:18:02;17.70;78.90
70184;DHT22;57554;51.546;6.776;2023-07-31T05:20:27;17.70;78.80
70184;DHT22;57554;51.546;6.776;2023-07-31T05:22:53;17.70;78.80
70184;DHT22;57554;51.546;6.776;2023-07-31T05:25:19;17.70;78.80
70184;DHT22;57554;51.546;6.776;2023-07-31T05:27:44;17.70;78.80
70184;DHT22;57554;51.546;6.776;2023-07-31T05:30:10;17.70;78.80
70184;DHT22;57554;51.546;6.776;2023-07-31T05:32:36;17.70;78.80
70184;DHT22;57554;51.546;6.776;2023-07-31T05:35:01;17.70;78.90
70184;DHT22;57554;51.546;6.776;2023-07-31T05:37:27;17.70;79.00
70184;DHT22;57554;51.546;6.776;2023-07-31T05:39:52;17.70;79.00
70184;DHT22;57554;51.546;6.776;2023-07-31T05:42:18;17.70;79.10
70184;DHT22;57554;51.546;6.776;2023-07-31T05:44:43;17.70;79.20
70184;DHT22;57554;51.546;6.776;2023-07-31T05:47:09;17.60;79.50
70184;DHT22;57554;51.546;6.776;2023-07-31T05:49:35;17.60;79.60
70184;DHT22;57554;51.546;6.776;2023-07-31T05:52:00;17.70;79.70
70184;DHT22;57554;51.546;6.776;2023-07-31T05:54:26;17.70;79.70
70184;DHT22;57554;51.546;6.776;2023-07-31T05:56:51;17.70;79.70
70184;DHT22;57554;51.546;6.776;2023-07-31T05:59:17;17.70;79.70
70184;DHT22;57554;51.546;6.776;2023-07-31T06:01:43;17.70;79.70
70184;DHT22;57554;51.546;6.776;2023-07-31T06:04:08;17.70;79.70
70184;DHT22;57554;51.546;6.776;2023-07-31T06:06:34;17.70;79.80
70184;DHT22;57554;51.546;6.776;2023-07-31T06:09:00;17.80;79.90
70184;DHT22;57554;51.546;6.776;2023-07-31T06:11:26;17.80;79.90
70184;DHT22;57554;51.546;6.776;2023-07-31T06:13:51;17.80;79.80
70184;DHT22;57554;51.546;6.776;2023-07-31T06:16:17;17.80;80.00
70184;DHT22;57554;51.546;6.776;2023-07-31T06:18:42;17.70;80.10
70184;DHT22;57554;51.546;6.776;2023-07-31T06:21:09;17.70;80.30
70184;DHT22;57554;51.546;6.776;2023-07-31T06:23:35;17.70;80.40
70184;DHT22;57554;51.546;6.776;2023-07-31T06:26:00;17.70;80.40
70184;DHT22;57554;51.546;6.776;2023-07-31T06:28:29;17.70;80.60
70184;DHT22;57554;51.546;6.776;2023-07-31T06:30:55;17.70;80.60
70184;DHT22;57554;51.546;6.776;2023-07-31T06:33:21;17.70;80.70
70184;DHT22;57554;51.546;6.776;2023-07-31T06:35:46;17.70;80.80
70184;DHT22;57554;51.546;6.776;2023-07-31T06:38:12;17.70;80.90
70184;DHT22;57554;51.546;6.776;2023-07-31T06:40:38;17.70;81.00
70184;DHT22;57554;51.546;6.776;2023-07-31T06:43:03;17.70;80.90
70184;DHT22;57554;51.546;6.776;2023-07-31T06:45:34;17.80;81.00
70184;DHT22;57554;51.546;6.776;2023-07-31T06:48:00;17.80;81.00
70184;DHT22;57554;51.546;6.776;2023-07-31T06:50:30;17.80;81.00
70184;DHT22;57554;51.546;6.776;2023-07-31T06:52:56;17.80;81.00
70184;DHT22;57554;51.546;6.776;2023-07-31T06:55:23;17.80;81.10
70184;DHT22;57554;51.546;6.776;2023-07-31T06:57:54;17.70;81.20
70184;DHT22;57554;51.546;6.776;2023-07-31T07:00:22;17.70;81.30
70184;DHT22;57554;51.546;6.776;2023-07-31T07:02:48;17.70;81.30
70184;DHT22;57554;51.546;6.776;2023-07-31T07:05:15;17.60;81.50
70184;DHT22;57554;51.546;6.776;2023-07-31T07:07:41;17.50;81.90
70184;DHT22;57554;51.546;6.776;2023-07-31T07:10:07;17.40;82.20
70184;DHT22;57554;51.546;6.776;2023-07-31T07:12:34;17.30;82.60
70184;DHT22;57554;51.546;6.776;2023-07-31T07:15:00;17.30;82.80
70184;DHT22;57554;51.546;6.776;2023-07-31T07:17:27;17.30;83.10
70184;DHT22;57554;51.546;6.776;2023-07-31T07:19:56;17.30;83.30
70184;DHT22;57554;51.546;6.776;2023-07-31T07:22:22;17.30;83.50
70184;DHT22;57554;51.546;6.776;2023-07-31T07:24:48;17.30;83.50
70184;DHT22;57554;51.546;6.776;2023-07-31T07:27:14;17.40;83.60
70184;DHT22;57554;51.546;6.776;2023-07-31T07:29:40;17.40;83.60
70184;DHT22;57554;51.546;6.776;2023-07-31T07:32:05;17.40;83.50
70184;DHT22;57554;51.546;6.776;2023-07-31T07:34:31;17.40;83.40
70184;DHT22;57554;51.546;6.776;2023-07-31T07:36:57;17.40;83.50
70184;DHT22;57554;51.546;6.776;2023-07-31T07:39:22;17.40;83.60
70184;DHT22;57554;51.546;6.776;2023-07-31T07:41:48;17.30;83.70
70184;DHT22;57554;51.546;6.776;2023-07-31T07:44:14;17.30;83.70
70184;DHT22;57554;51.546;6.776;2023-07-31T07:46:40;17.30;83.80
70184;DHT22;57554;51.546;6.776;2023-07-31T07:49:05;17.30;84.00
70184;DHT22;57554;51.546;6.776;2023-07-31T07:51:31;17.30;84.00
70184;DHT22;57554;51.546;6.776;2023-07-31T07:53:59;17.30;84.00
70184;DHT22;57554;51.546;6.776;2023-07-31T07:56:27;17.30;83.90
70184;DHT22;57554;51.546;6.776;2023-07-31T07:58:54;17.30;83.60
70184;DHT22;57554;51.546;6.776;2023-07-31T08:01:19;17.30;83.60
70184;DHT22;57554;51.546;6.776;2023-07-31T08:03:46;17.30;83.60
70184;DHT22;57554;51.546;6.776;2023-07-31T08:06:11;17.30;83.30
70184;DHT22;57554;51.546;6.776;2023-07-31T08:35:32;16.60;82.30
70184;DHT22;57554;51.546;6.776;2023-07-31T08:37:58;16.90;86.90
70184;DHT22;57554;51.546;6.776;2023-07-31T13:42:44;18.10;86.80
70184;DHT22;57554;51.546;6.776;2023-07-31T13:45:12;18.70;85.60
70184;DHT22;57554;51.546;6.776;2023-07-31T13:47:37;18.90;84.70
70184;DHT22;57554;51.546;6.776;2023-07-31T13:50:03;19.00;84.00
70184;DHT22;57554;51.546;6.776;2023-07-31T13:52:29;19.10;83.50
70184;DHT22;57554;51.546;6.776;2023-07-31T13:54:54;19.20;83.10
70184;DHT22;57554;51.546;6.776;2023-07-31T13:57:20;19.30;82.60
70184;DHT22;57554;51.546;6.776;2023-07-31T13:59:45;19.30;82.00
70184;DHT22;57554;51.546;6.776;2023-07-31T14:02:11;19.40;81.60
70184;DHT22;57554;51.546;6.776;2023-07-31T14:04:36;19.50;81.30
70184;DHT22;57554;51.546;6.776;2023-07-31T14:07:02;19.50;81.10
70184;DHT22;57554;51.546;6.776;2023-07-31T14:09:29;19.70;81.00
70184;DHT22;57554;51.546;6.776;2023-07-31T14:11:55;19.80;80.90
70184;DHT22;57554;51.546;6.776;2023-07-31T14:14:21;19.90;80.70
70184;DHT22;57554;51.546;6.776;2023-07-31T14:16:46;20.10;80.10
70184;DHT22;57554;51.546;6.776;2023-07-31T14:19:12;20.10;79.60
70184;DHT22;57554;51.546;6.776;2023-07-31T14:21:37;20.10;78.70
70184;DHT22;57554;51.546;6.776;2023-07-31T14:24:03;20.10;78.50
70184;DHT22;57554;51.546;6.776;2023-07-31T14:26:29;20.10;78.40
70184;DHT22;57554;51.546;6.776;2023-07-31T14:28:54;20.10;78.40
70184;DHT22;57554;51.546;6.776;2023-07-31T14:31:20;20.00;78.00
70184;DHT22;57554;51.546;6.776;2023-07-31T14:33:45;20.00;77.80
70184;DHT22;57554;51.546;6.776;2023-07-31T14:36:11;20.00;77.50
70184;DHT22;57554;51.546;6.776;2023-07-31T14:38:36;19.90;77.10
70184;DHT22;57554;51.546;6.776;2023-07-31T14:41:02;19.90;77.20
70184;DHT22;57554;51.546;6.776;2023-07-31T14:43:28;19.90;77.30
70184;DHT22;57554;51.546;6.776;2023-07-31T14:45:53;19.80;77.50
70184;DHT22;57554;51.546;6.776;2023-07-31T14:48:21;19.80;77.50
70184;DHT22;57554;51.546;6.776;2023-07-31T14:50:46;19.80;77.50
70184;DHT22;57554;51.546;6.776;2023-07-31T14:53:12;19.70;78.00
70184;DHT22;57554;51.546;6.776;2023-07-31T14:55:38;19.60;78.30
70184;DHT22;57554;51.546;6.776;2023-07-31T14:58:03;19.60;78.40
70184;DHT22;57554;51.546;6.776;2023-07-31T15:00:29;19.60;78.60
70184;DHT22;57554;51.546;6.776;2023-07-31T15:02:54;19.60;78.60
70184;DHT22;57554;51.546;6.776;2023-07-31T15:05:20;19.60;78.60
70184;DHT22;57554;51.546;6.776;2023-07-31T15:07:45;19.50;78.80
70184;DHT22;57554;51.546;6.776;2023-07-31T15:10:11;19.40;79.10
70184;DHT22;57554;51.546;6.776;2023-07-31T15:12:36;19.30;79.50
70184;DHT22;57554;51.546;6.776;2023-07-31T15:15:04;19.20;79.90
70184;DHT22;57554;51.546;6.776;2023-07-31T15:17:29;19.10;80.30
70184;DHT22;57554;51.546;6.776;2023-07-31T15:19:55;19.10;80.50
70184;DHT22;57554;51.546;6.776;2023-07-31T15:22:21;19.10;80.60
70184;DHT22;57554;51.546;6.776;2023-07-31T15:24:46;19.10;80.60
70184;DHT22;57554;51.546;6.776;2023-07-31T15:27:14;19.20;80.50
70184;DHT22;57554;51.546;6.776;2023-07-31T15:29:40;19.20;80.30
70184;DHT22;57554;51.546;6.776;2023-07-31T15:32:06;19.20;80.10
70184;DHT22;57554;51.546;6.776;2023-07-31T15:34:31;19.20;79.90
70184;DHT22;57554;51.546;6.776;2023-07-31T15:36:57;19.30;79.80
70184;DHT22;57554;51.546;6.776;2023-07-31T15:39:23;19.30;79.70
70184;DHT22;57554;51.546;6.776;2023-07-31T15:41:48;19.30;79.50
70184;DHT22;57554;51.546;6.776;2023-07-31T15:44:14;19.40;79.10
70184;DHT22;57554;51.546;6.776;2023-07-31T15:46:39;19.40;78.70
70184;DHT22;57554;51.546;6.776;2023-07-31T15:49:05;19.50;78.40
70184;DHT22;57554;51.546;6.776;2023-07-31T15:51:31;19.50;78.00
70184;DHT22;57554;51.546;6.776;2023-07-31T15:53:56;19.50;77.70
70184;DHT22;57554;51.546;6.776;2023-07-31T15:56:22;19.50;77.70
70184;DHT22;57554;51.546;6.776;2023-07-31T15:58:47;19.50;77.60
70184;DHT22;57554;51.546;6.776;2023-07-31T16:01:13;19.50;77.50
70184;DHT22;57554;51.546;6.776;2023-07-31T16:03:38;19.40;77.80
70184;DHT22;57554;51.546;6.776;2023-07-31T16:06:04;19.20;78.20
70184;DHT22;57554;51.546;6.776;2023-07-31T16:08:29;19.10;78.70
70184;DHT22;57554;51.546;6.776;2023-07-31T16:10:55;19.00;79.20
70184;DHT22;57554;51.546;6.776;2023-07-31T16:13:21;18.90;79.80
70184;DHT22;57554;51.546;6.776;2023-07-31T16:15:47;18.80;80.20
70184;DHT22;57554;51.546;6.776;2023-07-31T16:18:12;18.80;80.60
70184;DHT22;57554;51.546;6.776;2023-07-31T16:20:38;18.70;80.90
70184;DHT22;57554;51.546;6.776;2023-07-31T16:23:03;18.70;81.20
70184;DHT22;57554;51.546;6.776;2023-07-31T16:25:29;18.70;81.50
70184;DHT22;57554;51.546;6.776;2023-07-31T16:27:54;18.70;81.70
70184;DHT22;57554;51.546;6.776;2023-07-31T16:30:20;18.70;81.90
70184;DHT22;57554;51.546;6.776;2023-07-31T16:32:47;18.80;82.00
70184;DHT22;57554;51.546;6.776;2023-07-31T16:35:14;18.80;82.00
70184;DHT22;57554;51.546;6.776;2023-07-31T16:37:40;18.80;82.00
70184;DHT22;57554;51.546;6.776;2023-07-31T16:40:07;18.90;81.90
70184;DHT22;57554;51.546;6.776;2023-07-31T16:42:33;18.90;81.80
70184;DHT22;57554;51.546;6.776;2023-07-31T16:44:59;18.90;81.90
70184;DHT22;57554;51.546;6.776;2023-07-31T16:47:25;18.90;82.00
70184;DHT22;57554;51.546;6.776;2023-07-31T16:49:50;18.90;82.00
70184;DHT22;57554;51.546;6.776;2023-07-31T16:52:17;18.90;82.00
70184;DHT22;57554;51.546;6.776;2023-07-31T16:54:42;18.90;82.20
70184;DHT22;57554;51.546;6.776;2023-07-31T16:57:08;18.90;82.00
70184;DHT22;57554;51.546;6.776;2023-07-31T16:59:34;18.90;82.00
70184;DHT22;57554;51.546;6.776;2023-07-31T17:01:59;19.00;82.00
70184;DHT22;57554;51.546;6.776;2023-07-31T17:04:25;19.00;81.90
70184;DHT22;57554;51.546;6.776;2023-07-31T17:06:50;18.90;81.80
70184;DHT22;57554;51.546;6.776;2023-07-31T17:09:16;18.90;81.80
70184;DHT22;57554;51.546;6.776;2023-07-31T17:11:42;18.90;81.70
70184;DHT22;57554;51.546;6.776;2023-07-31T17:14:07;18.80;81.60
70184;DHT22;57554;51.546;6.776;2023-07-31T17:16:36;18.80;81.60
70184;DHT22;57554;51.546;6.776;2023-07-31T17:19:02;18.80;81.50
70184;DHT22;57554;51.546;6.776;2023-07-31T17:21:28;18.70;81.40
70184;DHT22;57554;51.546;6.776;2023-07-31T17:23:54;18.60;81.50
70184;DHT22;57554;51.546;6.776;2023-07-31T17:26:20;18.60;81.80
70184;DHT22;57554;51.546;6.776;2023-07-31T17:28:45;18.60;82.10
70184;DHT22;57554;51.546;6.776;2023-07-31T17:31:11;18.60;82.20
70184;DHT22;57554;51.546;6.776;2023-07-31T17:33:41;18.60;82.20
70184;DHT22;57554;51.546;6.776;2023-07-31T17:36:06;18.50;82.10
70184;DHT22;57554;51.546;6.776;2023-07-31T17:38:32;18.40;82.30
70184;DHT22;57554;51.546;6.776;2023-07-31T17:40:58;18.40;82.50
70184;DHT22;57554;51.546;6.776;2023-07-31T17:43:23;18.30;82.80
70184;DHT22;57554;51.546;6.776;2023-07-31T17:45:50;18.30;83.00
70184;DHT22;57554;51.546;6.776;2023-07-31T17:48:15;18.20;83.20
70184;DHT22;57554;51.546;6.776;2023-07-31T17:50:41;18.10;83.60
70184;DHT22;57554;51.546;6.776;2023-07-31T17:53:07;18.10;83.80
70184;DHT22;57554;51.546;6.776;2023-07-31T17:55:33;18.10;84.00
70184;DHT22;57554;51.546;6.776;2023-07-31T17:57:58;18.10;84.10
70184;DHT22;57554;51.546;6.776;2023-07-31T18:00:24;18.10;84.20
70184;DHT22;57554;51.546;6.776;2023-07-31T18:02:49;18.10;84.20
70184;DHT22;57554;51.546;6.776;2023-07-31T18:05:15;18.10;84.30
70184;DHT22;57554;51.546;6.776;2023-07-31T18:07:40;18.10;84.30
70184;DHT22;57554;51.546;6.776;2023-07-31T18:10:06;18.10;84.30
70184;DHT22;57554;51.546;6.776;2023-07-31T18:12:36;18.10;84.40
70184;DHT22;57554;51.546;6.776;2023-07-31T18:15:03;18.10;84.40
70184;DHT22;57554;51.546;6.776;2023-07-31T18:17:29;18.10;84.40
70184;DHT22;57554;51.546;6.776;2023-07-31T18:19:55;18.10;84.50
70184;DHT22;57554;51.546;6.776;2023-07-31T18:22:20;18.10;84.50
70184;DHT22;57554;51.546;6.776;2023-07-31T18:24:46;18.10;84.50
70184;DHT22;57554;51.546;6.776;2023-07-31T18:27:12;18.10;84.60
70184;DHT22;57554;51.546;6.776;2023-07-31T18:29:39;18.10;84.70
70184;DHT22;57554;51.546;6.776;2023-07-31T18:32:05;18.10;84.80
70184;DHT22;57554;51.546;6.776;2023-07-31T18:34:32;18.10;84.80
70184;DHT22;57554;51.546;6.776;2023-07-31T18:36:58;18.10;84.70
70184;DHT22;57554;51.546;6.776;2023-07-31T18:39:23;18.10;84.80
70184;DHT22;57554;51.546;6.776;2023-07-31T18:41:49;18.10;84.80
70184;DHT22;57554;51.546;6.776;2023-07-31T18:44:14;18.10;84.80
70184;DHT22;57554;51.546;6.776;2023-07-31T18:46:40;18.10;84.80
70184;DHT22;57554;51.546;6.776;2023-07-31T18:49:05;18.10;84.80
70184;DHT22;57554;51.546;6.776;2023-07-31T18:51:31;18.20;84.80
70184;DHT22;57554;51.546;6.776;2023-07-31T18:54:01;18.20;84.80
70184;DHT22;57554;51.546;6.776;2023-07-31T18:56:26;18.20;84.70
70184;DHT22;57554;51.546;6.776;2023-07-31T18:58:52;18.20;84.60
70184;DHT22;57554;51.546;6.776;2023-07-31T19:01:19;18.20;84.70
70184;DHT22;57554;51.546;6.776;2023-07-31T19:03:44;18.20;84.70
70184;DHT22;57554;51.546;6.776;2023-07-31T19:06:10;18.20;84.70
70184;DHT22;57554;51.546;6.776;2023-07-31T19:08:35;18.20;84.60
70184;DHT22;57554;51.546;6.776;2023-07-31T19:11:01;18.20;84.70
70184;DHT22;57554;51.546;6.776;2023-07-31T19:13:27;18.30;84.70
70184;DHT22;57554;51.546;6.776;2023-07-31T19:15:52;18.30;84.60
70184;DHT22;57554;51.546;6.776;2023-07-31T19:18:19;18.30;84.60
70184;DHT22;57554;51.546;6.776;2023-07-31T19:20:45;18.20;84.40
70184;DHT22;57554;51.546;6.776;2023-07-31T19:23:10;18.10;84.70
70184;DHT22;57554;51.546;6.776;2023-07-31T19:25:36;18.10;84.90
70184;DHT22;57554;51.546;6.776;2023-07-31T19:28:02;18.10;85.20
70184;DHT22;57554;51.546;6.776;2023-07-31T19:30:27;18.10;85.20
70184;DHT22;57554;51.546;6.776;2023-07-31T19:32:53;18.10;85.20
70184;DHT22;57554;51.546;6.776;2023-07-31T19:35:18;18.10;85.20
70184;DHT22;57554;51.546;6.776;2023-07-31T19:37:44;18.20;85.10
70184;DHT22;57554;51.546;6.776;2023-07-31T19:40:10;18.20;85.10
70184;DHT22;57554;51.546;6.776;2023-07-31T19:42:36;18.20;85.10
70184;DHT22;57554;51.546;6.776;2023-07-31T19:45:05;18.20;85.00
70184;DHT22;57554;51.546;6.776;2023-07-31T19:47:31;18.20;85.00
70184;DHT22;57554;51.546;6.776;2023-07-31T19:49:57;18.20;85.00
70184;DHT22;57554;51.546;6.776;2023-07-31T19:52:23;18.20;85.10
70184;DHT22;57554;51.546;6.776;2023-07-31T19:54:49;18.20;85.10
70184;DHT22;57554;51.546;6.776;2023-07-31T19:57:14;18.30;85.10
70184;DHT22;57554;51.546;6.776;2023-07-31T19:59:40;18.30;85.10
70184;DHT22;57554;51.546;6.776;2023-07-31T20:02:06;18.30;85.10
70184;DHT22;57554;51.546;6.776;2023-07-31T20:04:32;18.30;84.90
70184;DHT22;57554;51.546;6.776;2023-07-31T20:06:58;18.30;84.90
70184;DHT22;57554;51.546;6.776;2023-07-31T20:09:23;18.30;84.80
70184;DHT22;57554;51.546;6.776;2023-07-31T20:11:49;18.40;84.80
70184;DHT22;57554;51.546;6.776;2023-07-31T20:14:15;18.40;84.70
70184;DHT22;57554;51.546;6.776;2023-07-31T20:16:41;18.40;84.70
70184;DHT22;57554;51.546;6.776;2023-07-31T20:19:07;18.40;84.60
70184;DHT22;57554;51.546;6.776;2023-07-31T20:21:33;18.40;84.60
70184;DHT22;57554;51.546;6.776;2023-07-31T20:23:58;18.40;84.60
70184;DHT22;57554;51.546;6.776;2023-07-31T20:26:24;18.40;84.60
70184;DHT22;57554;51.546;6.776;2023-07-31T20:28:50;18.40;84.50
70184;DHT22;57554;51.546;6.776;2023-07-31T20:31:15;18.40;84.50
70184;DHT22;57554;51.546;6.776;2023-07-31T20:33:42;18.40;84.50
70184;DHT22;57554;51.546;6.776;2023-07-31T20:36:08;18.40;84.60
70184;DHT22;57554;51.546;6.776;2023-07-31T20:38:34;18.40;84.50
70184;DHT22;57554;51.546;6.776;2023-07-31T20:41:00;18.40;84.50
70184;DHT22;57554;51.546;6.776;2023-07-31T20:43:25;18.40;84.40
70184;DHT22;57554;51.546;6.776;2023-07-31T20:45:51;18.40;84.40
70184;DHT22;57554;51.546;6.776;2023-07-31T20:48:16;18.40;84.40
70184;DHT22;57554;51.546;6.776;2023-07-31T20:50:42;18.40;84.40
70184;DHT22;57554;51.546;6.776;2023-07-31T20:53:07;18.40;84.30
70184;DHT22;57554;51.546;6.776;2023-07-31T20:55:33;18.40;84.30